Islander Express — WCJ6211 — position and weather

sailwx.info

Track history (hours):
 
Tides and Currents Weather Stations Pressure Air Temp Water Temp Dewpoint Dewpoint Depression Visibility Wind Speed Wind Dir Waves Ship Positions

Islander Express

Owner: RGWT INC, Long Beach, CA. More information available from US FCC via Universal Licensing System and Coast Guard Vessel Documentation Center.

Last reported at 2018-Apr-19 02:20 UTC. Time now 2018-Apr-19 13:45 UTC.
Position N 33°28' W 117°42'.

Length 37 m; draft 1 m.

Type: High speed craft. MMSI: 366943970.

Date/timePositionNaut miles runAvg speedWind from/ knotsBaromVisibWave heightAir tempDewpointWater temp
2018-Apr-19 02:20N 33°28' W 117°42'0 0.2
2018-Apr-19 02:00N 33°28' W 117°42'1323.3
2018-Apr-19 01:26N 33°24' W 117°57'19 6.0
2018-Apr-18 22:14N 33°21' W 118°20'0 0.0
2018-Apr-18 21:59N 33°21' W 118°20'0 0.0
2018-Apr-18 21:30N 33°21' W 118°20'0 0.0
2018-Apr-18 20:00N 33°21' W 118°20'0 0.1
2018-Apr-18 19:30N 33°21' W 118°20'0 0.0
2018-Apr-18 19:00N 33°21' W 118°20'1812.5
2018-Apr-18 17:32N 33°25' W 117°58'617.2
2018-Apr-18 17:12N 33°26' W 117°51'9 8.1
2018-Apr-18 16:09N 33°28' W 117°42'0 0.2
2018-Apr-18 15:52N 33°28' W 117°41'0 0.1
2018-Apr-18 15:30N 33°28' W 117°41'0 0.2
2018-Apr-18 15:00N 33°28' W 117°42'0 0.0
2018-Apr-18 03:02N 33°28' W 117°42'0 0.0
2018-Apr-18 02:59N 33°28' W 117°42'0 0.0
2018-Apr-18 02:30N 33°28' W 117°42'0 0.3
2018-Apr-18 02:00N 33°27' W 117°42'1122.9
2018-Apr-18 01:30N 33°24' W 117°54'2113.4
2018-Apr-17 23:56N 33°21' W 118°19'0 1.1
2018-Apr-17 23:30N 33°21' W 118°20'31 4.7
2018-Apr-17 16:54N 33°27' W 117°43'2 4.2
2018-Apr-17 16:30N 33°28' W 117°42'0 0.0
2018-Apr-17 15:58N 33°28' W 117°42'0 0.0
2018-Apr-17 15:23N 33°28' W 117°42'0 0.0
2018-Apr-17 03:09N 33°28' W 117°42'0 0.0
2018-Apr-17 02:47N 33°28' W 117°42'0 0.2
2018-Apr-17 02:30N 33°28' W 117°41'2 0.4
2018-Apr-16 22:53N 33°27' W 117°43'2 3.9
2018-Apr-16 22:30N 33°28' W 117°42'0 0.0
2018-Apr-16 21:51N 33°28' W 117°42'0 0.0
2018-Apr-16 21:28N 33°28' W 117°42'0 0.0
2018-Apr-16 20:57N 33°28' W 117°42'0 0.0
2018-Apr-16 20:30N 33°28' W 117°42'1 0.4
2018-Apr-16 16:53N 33°27' W 117°43'1 3.6
2018-Apr-16 16:30N 33°28' W 117°42'0 0.1
2018-Apr-16 15:57N 33°28' W 117°41'0 0.1
2018-Apr-16 15:25N 33°28' W 117°42'0 0.0
2018-Apr-16 03:15N 33°28' W 117°42'2 8.7
2018-Apr-16 03:00N 33°26' W 117°44'1225.1
2018-Apr-16 02:31N 33°24' W 117°58'1610.2
2018-Apr-16 00:59N 33°21' W 118°17'1426.3
2018-Apr-16 00:27N 33°24' W 117°60'1125.7
2018-Apr-16 00:00N 33°26' W 117°47'5 8.9
2018-Apr-15 23:30N 33°28' W 117°42'0 0.0
2018-Apr-15 23:00N 33°28' W 117°42'0 0.1
2018-Apr-15 22:28N 33°28' W 117°42'920.3
2018-Apr-15 22:00N 33°26' W 117°52'7 2.9
2018-Apr-15 19:39N 33°23' W 117°60'425.7
2018-Apr-15 19:30N 33°24' W 117°55'1224.2
2018-Apr-15 19:00N 33°27' W 117°41'0 0.6
2018-Apr-15 18:23N 33°28' W 117°42'411.7
2018-Apr-15 18:01N 33°25' W 117°46'1224.8
2018-Apr-15 17:31N 33°22' W 118°00'13 8.7
2018-Apr-15 16:01N 33°22' W 118°16'125.7
2018-Apr-15 15:59N 33°22' W 118°15'1725.0
2018-Apr-15 15:18N 33°25' W 117°55'724.8
2018-Apr-15 15:00N 33°26' W 117°46'4 7.4
2018-Apr-15 14:28N 33°28' W 117°42'0 0.0
2018-Apr-15 14:00N 33°28' W 117°42'0 0.1
2018-Apr-15 13:30N 33°28' W 117°41'0 0.0
2018-Apr-15 03:15N 33°28' W 117°42'2 6.3
2018-Apr-15 03:00N 33°27' W 117°43'1325.4
2018-Apr-15 02:30N 33°25' W 117°58'6 3.2
2018-Apr-15 00:42N 33°24' W 118°05'526.7
2018-Apr-15 00:30N 33°25' W 117°59'1325.9
2018-Apr-15 00:00N 33°27' W 117°43'2 3.4
2018-Apr-14 23:29N 33°28' W 117°42'0 0.0
2018-Apr-14 23:00N 33°28' W 117°42'0 0.0
2018-Apr-14 22:30N 33°28' W 117°42'714.2
2018-Apr-14 22:00N 33°24' W 117°49'3 1.2
2018-Apr-14 19:27N 33°24' W 117°53'1021.3
2018-Apr-14 18:59N 33°27' W 117°42'0 0.3
2018-Apr-14 18:30N 33°28' W 117°42'3 5.8
2018-Apr-14 18:00N 33°26' W 117°45'1326.3
2018-Apr-14 17:31N 33°24' W 117°60'1717.3
2018-Apr-14 16:33N 33°21' W 118°19'0 0.0
2018-Apr-14 16:25N 33°21' W 118°19'1618.4
2018-Apr-14 15:32N 33°24' W 118°00'125.0
2018-Apr-14 15:30N 33°24' W 117°59'1224.8
2018-Apr-14 15:00N 33°26' W 117°45'3 5.6
2018-Apr-14 14:30N 33°28' W 117°42'0 0.0
2018-Apr-14 14:00N 33°28' W 117°42'0 0.1
2018-Apr-14 13:30N 33°28' W 117°41'0 0.0
2018-Apr-14 03:15N 33°28' W 117°42'2 7.6
2018-Apr-14 03:01N 33°26' W 117°43'1325.8
2018-Apr-14 02:30N 33°24' W 117°59'12 7.8
2018-Apr-14 00:58N 33°21' W 118°12'1123.7
2018-Apr-14 00:30N 33°24' W 117°59'1223.8
2018-Apr-14 00:00N 33°26' W 117°45'4 7.2
2018-Apr-13 23:30N 33°28' W 117°42'0 0.0
2018-Apr-13 23:00N 33°28' W 117°42'0 0.0
2018-Apr-13 22:30N 33°28' W 117°42'813.8
2018-Apr-13 21:57N 33°25' W 117°50'4 1.4
2018-Apr-13 19:26N 33°25' W 117°54'1024.2
2018-Apr-13 19:01N 33°27' W 117°42'1 1.6
2018-Apr-13 18:30N 33°28' W 117°42'2 4.8
2018-Apr-13 18:00N 33°26' W 117°44'7 2.7
2018-Apr-13 15:15N 33°25' W 117°53'724.9
2018-Apr-13 14:58N 33°26' W 117°44'3 5.8
2018-Apr-13 14:30N 33°28' W 117°42'0 0.0
2018-Apr-13 14:00N 33°28' W 117°42'0 0.0
2018-Apr-13 13:30N 33°28' W 117°42'0 0.0
2018-Apr-13 13:00N 33°28' W 117°42'0 0.0
2018-Apr-12 02:56N 33°28' W 117°42'0 0.2
2018-Apr-12 01:59N 33°27' W 117°42'3219.6
2018-Apr-12 00:21N 33°21' W 118°19'20 2.8
2018-Apr-11 17:22N 33°25' W 117°56'924.8
2018-Apr-11 17:00N 33°26' W 117°46'4 7.4
2018-Apr-11 16:30N 33°28' W 117°42'0 0.0
2018-Apr-11 03:07N 33°28' W 117°42'0 0.0
2018-Apr-11 03:00N 33°28' W 117°42'0 0.0
2018-Apr-11 02:31N 33°28' W 117°42'2 3.5
2018-Apr-11 02:00N 33°26' W 117°43'1020.0
2018-Apr-11 01:31N 33°24' W 117°55'2114.2
2018-Apr-11 00:02N 33°22' W 118°20'126.0
2018-Apr-10 23:59N 33°23' W 118°21'7 6.8
2018-Apr-10 22:55N 33°29' W 118°26'1125.8
2018-Apr-10 22:30N 33°37' W 118°19'714.5
2018-Apr-10 22:00N 33°44' W 118°17'1 1.1
2018-Apr-10 21:30N 33°45' W 118°16'0 0.0
2018-Apr-10 21:00N 33°45' W 118°16'0 0.0
2018-Apr-10 20:30N 33°45' W 118°16'0 0.0
2018-Apr-10 20:00N 33°45' W 118°16'0 0.0
2018-Apr-10 19:29N 33°45' W 118°16'4 8.6
2018-Apr-10 19:01N 33°41' W 118°16'1326.3
2018-Apr-10 18:30N 33°31' W 118°27'8 4.0
2018-Apr-10 16:32N 33°32' W 118°17'325.8
2018-Apr-10 16:25N 33°35' W 118°16'922.0
2018-Apr-10 16:00N 33°44' W 118°16'1 2.8
2018-Apr-10 15:30N 33°45' W 118°16'0 0.0
2018-Apr-10 15:00N 33°45' W 118°16'0 0.0
2018-Apr-10 14:30N 33°45' W 118°16'0 0.0
2018-Apr-10 14:00N 33°45' W 118°16'0 0.0
2018-Apr-10 13:30N 33°45' W 118°16'0 0.0
2018-Apr-10 13:00N 33°45' W 118°16'0 0.0
2018-Apr-10 12:30N 33°45' W 118°16'0 0.0
2018-Apr-09 21:19N 33°45' W 118°16'0 0.0
2018-Apr-09 21:00N 33°45' W 118°16'0 0.0
2018-Apr-09 20:30N 33°45' W 118°16'1 2.4
2018-Apr-09 20:00N 33°44' W 118°16'2011.6
2018-Apr-09 18:17N 33°28' W 118°31'623.2
2018-Apr-09 18:01N 33°32' W 118°26'1325.1
2018-Apr-09 17:31N 33°41' W 118°16'4 7.0
2018-Apr-09 17:00N 33°45' W 118°16'0 0.1
2018-Apr-09 16:30N 33°45' W 118°16'0 0.0
2018-Apr-09 16:00N 33°45' W 118°16'0 0.0
2018-Apr-09 03:24N 33°45' W 118°16'2 4.2
2018-Apr-09 03:01N 33°43' W 118°16'1122.7
2018-Apr-09 02:30N 33°32' W 118°16'  
Track history (hours):
 
Tides and Currents Weather Stations Pressure Air Temp Water Temp Dewpoint Dewpoint Depression Visibility Wind Speed Wind Dir Waves Ship Positions

Islander Express

Owner: RGWT INC, Long Beach, CA. More information available from US FCC via Universal Licensing System and Coast Guard Vessel Documentation Center.

Last reported at 2018-Apr-19 02:20 UTC. Time now 2018-Apr-19 13:45 UTC.
Position N 33°28' W 117°42'.

Length 37 m; draft 1 m.

Type: High speed craft. MMSI: 366943970.

Date/timePositionNaut miles runAvg speedWind from/ knotsBaromVisibWave heightAir tempDewpointWater temp
2018-Apr-19 02:20N 33°28' W 117°42'0 0.2
2018-Apr-19 02:00N 33°28' W 117°42'1323.3
2018-Apr-19 01:26N 33°24' W 117°57'19 6.0
2018-Apr-18 22:14N 33°21' W 118°20'0 0.0
2018-Apr-18 21:59N 33°21' W 118°20'0 0.0
2018-Apr-18 21:30N 33°21' W 118°20'0 0.0
2018-Apr-18 20:00N 33°21' W 118°20'0 0.1
2018-Apr-18 19:30N 33°21' W 118°20'0 0.0
2018-Apr-18 19:00N 33°21' W 118°20'1812.5
2018-Apr-18 17:32N 33°25' W 117°58'617.2
2018-Apr-18 17:12N 33°26' W 117°51'9 8.1
2018-Apr-18 16:09N 33°28' W 117°42'0 0.2
2018-Apr-18 15:52N 33°28' W 117°41'0 0.1
2018-Apr-18 15:30N 33°28' W 117°41'0 0.2
2018-Apr-18 15:00N 33°28' W 117°42'0 0.0
2018-Apr-18 03:02N 33°28' W 117°42'0 0.0
2018-Apr-18 02:59N 33°28' W 117°42'0 0.0
2018-Apr-18 02:30N 33°28' W 117°42'0 0.3
2018-Apr-18 02:00N 33°27' W 117°42'1122.9
2018-Apr-18 01:30N 33°24' W 117°54'2113.4
2018-Apr-17 23:56N 33°21' W 118°19'0 1.1
2018-Apr-17 23:30N 33°21' W 118°20'31 4.7
2018-Apr-17 16:54N 33°27' W 117°43'2 4.2
2018-Apr-17 16:30N 33°28' W 117°42'0 0.0
2018-Apr-17 15:58N 33°28' W 117°42'0 0.0
2018-Apr-17 15:23N 33°28' W 117°42'0 0.0
2018-Apr-17 03:09N 33°28' W 117°42'0 0.0
2018-Apr-17 02:47N 33°28' W 117°42'0 0.2
2018-Apr-17 02:30N 33°28' W 117°41'2 0.4
2018-Apr-16 22:53N 33°27' W 117°43'2 3.9
2018-Apr-16 22:30N 33°28' W 117°42'0 0.0
2018-Apr-16 21:51N 33°28' W 117°42'0 0.0
2018-Apr-16 21:28N 33°28' W 117°42'0 0.0
2018-Apr-16 20:57N 33°28' W 117°42'0 0.0
2018-Apr-16 20:30N 33°28' W 117°42'1 0.4
2018-Apr-16 16:53N 33°27' W 117°43'1 3.6
2018-Apr-16 16:30N 33°28' W 117°42'0 0.1
2018-Apr-16 15:57N 33°28' W 117°41'0 0.1
2018-Apr-16 15:25N 33°28' W 117°42'0 0.0
2018-Apr-16 03:15N 33°28' W 117°42'2 8.7
2018-Apr-16 03:00N 33°26' W 117°44'1225.1
2018-Apr-16 02:31N 33°24' W 117°58'1610.2
2018-Apr-16 00:59N 33°21' W 118°17'1426.3
2018-Apr-16 00:27N 33°24' W 117°60'1125.7
2018-Apr-16 00:00N 33°26' W 117°47'5 8.9
2018-Apr-15 23:30N 33°28' W 117°42'0 0.0
2018-Apr-15 23:00N 33°28' W 117°42'0 0.1
2018-Apr-15 22:28N 33°28' W 117°42'920.3
2018-Apr-15 22:00N 33°26' W 117°52'7 2.9
2018-Apr-15 19:39N 33°23' W 117°60'425.7
2018-Apr-15 19:30N 33°24' W 117°55'1224.2
2018-Apr-15 19:00N 33°27' W 117°41'0 0.6
2018-Apr-15 18:23N 33°28' W 117°42'411.7
2018-Apr-15 18:01N 33°25' W 117°46'1224.8
2018-Apr-15 17:31N 33°22' W 118°00'13 8.7
2018-Apr-15 16:01N 33°22' W 118°16'125.7
2018-Apr-15 15:59N 33°22' W 118°15'1725.0
2018-Apr-15 15:18N 33°25' W 117°55'724.8
2018-Apr-15 15:00N 33°26' W 117°46'4 7.4
2018-Apr-15 14:28N 33°28' W 117°42'0 0.0
2018-Apr-15 14:00N 33°28' W 117°42'0 0.1
2018-Apr-15 13:30N 33°28' W 117°41'0 0.0
2018-Apr-15 03:15N 33°28' W 117°42'2 6.3
2018-Apr-15 03:00N 33°27' W 117°43'1325.4
2018-Apr-15 02:30N 33°25' W 117°58'6 3.2
2018-Apr-15 00:42N 33°24' W 118°05'526.7
2018-Apr-15 00:30N 33°25' W 117°59'1325.9
2018-Apr-15 00:00N 33°27' W 117°43'2 3.4
2018-Apr-14 23:29N 33°28' W 117°42'0 0.0
2018-Apr-14 23:00N 33°28' W 117°42'0 0.0
2018-Apr-14 22:30N 33°28' W 117°42'714.2
2018-Apr-14 22:00N 33°24' W 117°49'3 1.2
2018-Apr-14 19:27N 33°24' W 117°53'1021.3
2018-Apr-14 18:59N 33°27' W 117°42'0 0.3
2018-Apr-14 18:30N 33°28' W 117°42'3 5.8
2018-Apr-14 18:00N 33°26' W 117°45'1326.3
2018-Apr-14 17:31N 33°24' W 117°60'1717.3
2018-Apr-14 16:33N 33°21' W 118°19'0 0.0
2018-Apr-14 16:25N 33°21' W 118°19'1618.4
2018-Apr-14 15:32N 33°24' W 118°00'125.0
2018-Apr-14 15:30N 33°24' W 117°59'1224.8
2018-Apr-14 15:00N 33°26' W 117°45'3 5.6
2018-Apr-14 14:30N 33°28' W 117°42'0 0.0
2018-Apr-14 14:00N 33°28' W 117°42'0 0.1
2018-Apr-14 13:30N 33°28' W 117°41'0 0.0
2018-Apr-14 03:15N 33°28' W 117°42'2 7.6
2018-Apr-14 03:01N 33°26' W 117°43'1325.8
2018-Apr-14 02:30N 33°24' W 117°59'12 7.8
2018-Apr-14 00:58N 33°21' W 118°12'1123.7
2018-Apr-14 00:30N 33°24' W 117°59'1223.8
2018-Apr-14 00:00N 33°26' W 117°45'4 7.2
2018-Apr-13 23:30N 33°28' W 117°42'0 0.0
2018-Apr-13 23:00N 33°28' W 117°42'0 0.0
2018-Apr-13 22:30N 33°28' W 117°42'813.8
2018-Apr-13 21:57N 33°25' W 117°50'4 1.4
2018-Apr-13 19:26N 33°25' W 117°54'1024.2
2018-Apr-13 19:01N 33°27' W 117°42'1 1.6
2018-Apr-13 18:30N 33°28' W 117°42'2 4.8
2018-Apr-13 18:00N 33°26' W 117°44'7 2.7
2018-Apr-13 15:15N 33°25' W 117°53'724.9
2018-Apr-13 14:58N 33°26' W 117°44'3 5.8
2018-Apr-13 14:30N 33°28' W 117°42'0 0.0
2018-Apr-13 14:00N 33°28' W 117°42'0 0.0
2018-Apr-13 13:30N 33°28' W 117°42'0 0.0
2018-Apr-13 13:00N 33°28' W 117°42'0 0.0
2018-Apr-12 02:56N 33°28' W 117°42'0 0.2
2018-Apr-12 01:59N 33°27' W 117°42'3219.6
2018-Apr-12 00:21N 33°21' W 118°19'20 2.8
2018-Apr-11 17:22N 33°25' W 117°56'924.8
2018-Apr-11 17:00N 33°26' W 117°46'4 7.4
2018-Apr-11 16:30N 33°28' W 117°42'0 0.0
2018-Apr-11 03:07N 33°28' W 117°42'0 0.0
2018-Apr-11 03:00N 33°28' W 117°42'0 0.0
2018-Apr-11 02:31N 33°28' W 117°42'2 3.5
2018-Apr-11 02:00N 33°26' W 117°43'1020.0
2018-Apr-11 01:31N 33°24' W 117°55'2114.2
2018-Apr-11 00:02N 33°22' W 118°20'126.0
2018-Apr-10 23:59N 33°23' W 118°21'7 6.8
2018-Apr-10 22:55N 33°29' W 118°26'1125.8
2018-Apr-10 22:30N 33°37' W 118°19'714.5
2018-Apr-10 22:00N 33°44' W 118°17'1 1.1
2018-Apr-10 21:30N 33°45' W 118°16'0 0.0
2018-Apr-10 21:00N 33°45' W 118°16'0 0.0
2018-Apr-10 20:30N 33°45' W 118°16'0 0.0
2018-Apr-10 20:00N 33°45' W 118°16'0 0.0
2018-Apr-10 19:29N 33°45' W 118°16'4 8.6
2018-Apr-10 19:01N 33°41' W 118°16'1326.3
2018-Apr-10 18:30N 33°31' W 118°27'8 4.0
2018-Apr-10 16:32N 33°32' W 118°17'325.8
2018-Apr-10 16:25N 33°35' W 118°16'922.0
2018-Apr-10 16:00N 33°44' W 118°16'1 2.8
2018-Apr-10 15:30N 33°45' W 118°16'0 0.0
2018-Apr-10 15:00N 33°45' W 118°16'0 0.0
2018-Apr-10 14:30N 33°45' W 118°16'0 0.0
2018-Apr-10 14:00N 33°45' W 118°16'0 0.0
2018-Apr-10 13:30N 33°45' W 118°16'0 0.0
2018-Apr-10 13:00N 33°45' W 118°16'0 0.0
2018-Apr-10 12:30N 33°45' W 118°16'0 0.0
2018-Apr-09 21:19N 33°45' W 118°16'0 0.0
2018-Apr-09 21:00N 33°45' W 118°16'0 0.0
2018-Apr-09 20:30N 33°45' W 118°16'1 2.4
2018-Apr-09 20:00N 33°44' W 118°16'2011.6
2018-Apr-09 18:17N 33°28' W 118°31'623.2
2018-Apr-09 18:01N 33°32' W 118°26'1325.1
2018-Apr-09 17:31N 33°41' W 118°16'4 7.0
2018-Apr-09 17:00N 33°45' W 118°16'0 0.1
2018-Apr-09 16:30N 33°45' W 118°16'0 0.0
2018-Apr-09 16:00N 33°45' W 118°16'0 0.0
2018-Apr-09 03:24N 33°45' W 118°16'2 4.2
2018-Apr-09 03:01N 33°43' W 118°16'1122.7
2018-Apr-09 02:30N 33°32' W 118°16'  

Dump ship's entire track history